Sandy Springs, Georgia
Current Conditions -  °F | °C
As of 7:53 PM on Tuesday 27 Jan 2015 (Local Time) from KPDK Reporting Station
Clear Clear  
Wind Chill: 32°   Ceiling: Unl
Heat Index: 39°   Visibility: 10mi
Dew Point: 28°   Wind: 12mph
Humidity: 65%   Direction: 330°NNW
Pressure: 30.06"   Gusts: NA
Location:  33.92°N, 84.38°W
Report Text: KPDK 280053Z 33010KT 10SM CLR 04/M02 A3006 RMK AO2 SLP191 T00391022
Loading
Personal Weather Stations






























Interactive Weather Map New forecast layout! Learn more

10-Day Weather Forecast

Advertisements
Track Severe Weather on mobile